sensor_id;sensor_type;location;lat;lon;timestamp;pressure;altitude;pressure_sealevel;temperature;humidity
7760;BME280;3924;48.830;9.262;2023-01-28T00:01:32;99238.97;;;0.41;83.00
7760;BME280;3924;48.830;9.262;2023-01-28T00:03:59;99226.47;;;0.41;83.08
7760;BME280;3924;48.830;9.262;2023-01-28T00:06:26;99238.16;;;0.40;83.08
7760;BME280;3924;48.830;9.262;2023-01-28T00:08:52;99224.81;;;0.40;83.08
7760;BME280;3924;48.830;9.262;2023-01-28T00:11:21;99221.34;;;0.40;83.27
7760;BME280;3924;48.830;9.262;2023-01-28T00:13:52;99220.28;;;0.41;83.02
7760;BME280;3924;48.830;9.262;2023-01-28T00:16:19;99224.00;;;0.40;83.01
7760;BME280;3924;48.830;9.262;2023-01-28T00:18:47;99219.69;;;0.39;82.94
7760;BME280;3924;48.830;9.262;2023-01-28T00:21:14;99230.38;;;0.39;82.88
7760;BME280;3924;48.830;9.262;2023-01-28T00:23:42;99232.81;;;0.40;83.26
7760;BME280;3924;48.830;9.262;2023-01-28T00:26:13;99230.38;;;0.39;83.09
7760;BME280;3924;48.830;9.262;2023-01-28T00:28:41;99224.00;;;0.40;83.12
7760;BME280;3924;48.830;9.262;2023-01-28T00:31:19;99224.00;;;0.40;82.86
7760;BME280;3924;48.830;9.262;2023-01-28T00:33:48;99217.84;;;0.39;82.78
7760;BME280;3924;48.830;9.262;2023-01-28T00:36:16;99218.66;;;0.40;83.07
7760;BME280;3924;48.830;9.262;2023-01-28T00:38:48;99217.63;;;0.41;82.84
7760;BME280;3924;48.830;9.262;2023-01-28T00:41:17;99216.00;;;0.40;83.11
7760;BME280;3924;48.830;9.262;2023-01-28T00:43:44;99210.66;;;0.40;82.94
7760;BME280;3924;48.830;9.262;2023-01-28T00:46:11;99210.25;;;0.43;82.95
7760;BME280;3924;48.830;9.262;2023-01-28T00:48:40;99206.97;;;0.41;82.97
7760;BME280;3924;48.830;9.262;2023-01-28T00:51:07;99212.31;;;0.41;83.11
7760;BME280;3924;48.830;9.262;2023-01-28T00:53:35;99209.44;;;0.42;83.28
7760;BME280;3924;48.830;9.262;2023-01-28T00:56:04;99213.16;;;0.41;82.97
7760;BME280;3924;48.830;9.262;2023-01-28T00:58:32;99213.16;;;0.41;83.02
7760;BME280;3924;48.830;9.262;2023-01-28T01:01:13;99216.63;;;0.42;82.87
7760;BME280;3924;48.830;9.262;2023-01-28T01:03:40;99206.97;;;0.41;82.90
7760;BME280;3924;48.830;9.262;2023-01-28T01:06:08;99205.75;;;0.43;82.78
7760;BME280;3924;48.830;9.262;2023-01-28T01:08:35;99203.28;;;0.42;83.20
7760;BME280;3924;48.830;9.262;2023-01-28T01:11:06;99213.97;;;0.42;82.66
7760;BME280;3924;48.830;9.262;2023-01-28T01:13:33;99208.63;;;0.42;82.90
7760;BME280;3924;48.830;9.262;2023-01-28T01:16:11;99208.63;;;0.42;82.97
7760;BME280;3924;48.830;9.262;2023-01-28T01:18:38;99219.28;;;0.42;82.95
7760;BME280;3924;48.830;9.262;2023-01-28T01:21:12;99215.59;;;0.43;82.74
7760;BME280;3924;48.830;9.262;2023-01-28T01:23:40;99218.03;;;0.44;83.02
7760;BME280;3924;48.830;9.262;2023-01-28T01:26:07;99217.22;;;0.44;82.84
7760;BME280;3924;48.830;9.262;2023-01-28T01:28:34;99226.25;;;0.43;82.80
7760;BME280;3924;48.830;9.262;2023-01-28T01:31:04;99219.28;;;0.42;82.58
7760;BME280;3924;48.830;9.262;2023-01-28T01:33:31;99218.25;;;0.43;82.67
7760;BME280;3924;48.830;9.262;2023-01-28T01:35:58;99223.59;;;0.43;82.83
7760;BME280;3924;48.830;9.262;2023-01-28T01:38:25;99220.94;;;0.43;82.69
7760;BME280;3924;48.830;9.262;2023-01-28T01:40:56;99232.63;;;0.42;82.87
7760;BME280;3924;48.830;9.262;2023-01-28T01:43:24;99224.63;;;0.42;82.62
7760;BME280;3924;48.830;9.262;2023-01-28T01:45:58;99223.81;;;0.41;82.71
7760;BME280;3924;48.830;9.262;2023-01-28T01:48:31;99225.63;;;0.41;82.97
7760;BME280;3924;48.830;9.262;2023-01-28T01:51:21;99230.38;;;0.39;82.87
7760;BME280;3924;48.830;9.262;2023-01-28T01:53:52;99224.00;;;0.40;83.06
7760;BME280;3924;48.830;9.262;2023-01-28T01:56:22;99231.19;;;0.39;82.58
7760;BME280;3924;48.830;9.262;2023-01-28T01:58:52;99232.81;;;0.40;82.64
7760;BME280;3924;48.830;9.262;2023-01-28T02:01:24;99238.97;;;0.41;82.75
7760;BME280;3924;48.830;9.262;2023-01-28T02:03:59;99236.53;;;0.39;82.81
7760;BME280;3924;48.830;9.262;2023-01-28T02:06:27;99231.41;;;0.38;82.91
7760;BME280;3924;48.830;9.262;2023-01-28T02:08:54;99231.19;;;0.39;83.01
7760;BME280;3924;48.830;9.262;2023-01-28T02:11:24;99233.84;;;0.39;82.76
7760;BME280;3924;48.830;9.262;2023-01-28T02:13:54;99229.56;;;0.38;82.83
7760;BME280;3924;48.830;9.262;2023-01-28T02:16:23;99237.34;;;0.40;82.86
7760;BME280;3924;48.830;9.262;2023-01-28T02:18:51;99229.56;;;0.38;82.65
7760;BME280;3924;48.830;9.262;2023-01-28T02:30:17;99241.84;;;0.39;82.86
7760;BME280;3924;48.830;9.262;2023-01-28T02:32:56;99236.53;;;0.39;82.83
7760;BME280;3924;48.830;9.262;2023-01-28T02:35:37;99243.47;;;0.40;82.92
7760;BME280;3924;48.830;9.262;2023-01-28T02:38:19;99236.53;;;0.39;82.76
7760;BME280;3924;48.830;9.262;2023-01-28T02:40:52;99241.03;;;0.39;82.81
7760;BME280;3924;48.830;9.262;2023-01-28T02:46:16;99244.50;;;0.39;82.77
7760;BME280;3924;48.830;9.262;2023-01-28T02:49:05;99241.03;;;0.39;82.88
7760;BME280;3924;48.830;9.262;2023-01-28T02:57:35;99250.66;;;0.40;83.02
7760;BME280;3924;48.830;9.262;2023-01-28T03:00:09;99251.69;;;0.39;83.29
7760;BME280;3924;48.830;9.262;2023-01-28T03:05:39;99256.00;;;0.40;82.76
7760;BME280;3924;48.830;9.262;2023-01-28T03:08:34;99254.38;;;0.39;82.94
7760;BME280;3924;48.830;9.262;2023-01-28T03:11:20;99260.31;;;0.41;83.20
7760;BME280;3924;48.830;9.262;2023-01-28T03:14:06;99251.69;;;0.39;82.81
7760;BME280;3924;48.830;9.262;2023-01-28T03:16:53;99256.22;;;0.38;83.11
7760;BME280;3924;48.830;9.262;2023-01-28T03:19:41;99256.44;;;0.37;82.98
7760;BME280;3924;48.830;9.262;2023-01-28T03:22:28;99250.28;;;0.36;82.98
7760;BME280;3924;48.830;9.262;2023-01-28T03:25:19;99251.69;;;0.39;83.05
7760;BME280;3924;48.830;9.262;2023-01-28T03:28:08;99254.59;;;0.37;82.88
7760;BME280;3924;48.830;9.262;2023-01-28T03:31:02;99255.84;;;0.35;83.21
7760;BME280;3924;48.830;9.262;2023-01-28T03:33:49;99244.13;;;0.36;82.97
7760;BME280;3924;48.830;9.262;2023-01-28T03:36:35;99254.16;;;0.34;83.11
7760;BME280;3924;48.830;9.262;2023-01-28T03:39:36;99257.88;;;0.33;83.01
7760;BME280;3924;48.830;9.262;2023-01-28T03:42:04;99254.59;;;0.31;82.85
7760;BME280;3924;48.830;9.262;2023-01-28T03:44:31;99266.09;;;0.31;83.20
7760;BME280;3924;48.830;9.262;2023-01-28T03:47:18;99265.25;;;0.31;83.26
7760;BME280;3924;48.830;9.262;2023-01-28T03:49:47;99274.28;;;0.30;83.31
7760;BME280;3924;48.830;9.262;2023-01-28T03:52:22;99275.94;;;0.31;83.10
7760;BME280;3924;48.830;9.262;2023-01-28T03:54:49;99271.19;;;0.33;83.70
7760;BME280;3924;48.830;9.262;2023-01-28T03:57:20;99270.16;;;0.34;83.25
7760;BME280;3924;48.830;9.262;2023-01-28T03:59:47;99267.50;;;0.34;83.43
7760;BME280;3924;48.830;9.262;2023-01-28T04:02:19;99271.84;;;0.35;83.12
7760;BME280;3924;48.830;9.262;2023-01-28T04:04:47;99265.66;;;0.34;83.30
7760;BME280;3924;48.830;9.262;2023-01-28T04:07:15;99264.84;;;0.34;83.41
7760;BME280;3924;48.830;9.262;2023-01-28T04:09:42;99266.50;;;0.35;83.48
7760;BME280;3924;48.830;9.262;2023-01-28T04:12:09;99266.50;;;0.35;83.54
7760;BME280;3924;48.830;9.262;2023-01-28T04:14:36;99268.13;;;0.36;83.52
7760;BME280;3924;48.830;9.262;2023-01-28T04:17:02;99273.47;;;0.36;83.41
7760;BME280;3924;48.830;9.262;2023-01-28T04:19:29;99272.44;;;0.37;83.55
7760;BME280;3924;48.830;9.262;2023-01-28T04:21:56;99268.13;;;0.36;83.36
7760;BME280;3924;48.830;9.262;2023-01-28T04:24:23;99269.16;;;0.35;83.42
7760;BME280;3924;48.830;9.262;2023-01-28T04:26:50;99271.84;;;0.35;83.65
7760;BME280;3924;48.830;9.262;2023-01-28T04:29:16;99274.50;;;0.35;83.42
7760;BME280;3924;48.830;9.262;2023-01-28T04:31:42;99291.09;;;0.37;83.43
7760;BME280;3924;48.830;9.262;2023-01-28T04:34:09;99289.47;;;0.36;83.53
7760;BME280;3924;48.830;9.262;2023-01-28T04:36:36;99292.94;;;0.36;83.46
7760;BME280;3924;48.830;9.262;2023-01-28T04:39:02;99294.78;;;0.36;83.69
7760;BME280;3924;48.830;9.262;2023-01-28T04:41:29;99294.78;;;0.36;83.74
7760;BME280;3924;48.830;9.262;2023-01-28T04:43:56;99303.81;;;0.35;83.74
7760;BME280;3924;48.830;9.262;2023-01-28T04:46:22;99295.84;;;0.35;83.94
7760;BME280;3924;48.830;9.262;2023-01-28T04:48:48;99306.28;;;0.36;83.65
7760;BME280;3924;48.830;9.262;2023-01-28T04:51:15;99306.06;;;0.38;84.09
7760;BME280;3924;48.830;9.262;2023-01-28T04:53:41;99307.69;;;0.39;83.58
7760;BME280;3924;48.830;9.262;2023-01-28T04:56:08;99310.38;;;0.39;83.86
7760;BME280;3924;48.830;9.262;2023-01-28T04:58:34;99306.88;;;0.38;83.71
7760;BME280;3924;48.830;9.262;2023-01-28T05:01:01;99310.59;;;0.37;83.81
7760;BME280;3924;48.830;9.262;2023-01-28T05:03:28;99307.09;;;0.37;83.88
7760;BME280;3924;48.830;9.262;2023-01-28T05:05:54;99309.16;;;0.35;83.98
7760;BME280;3924;48.830;9.262;2023-01-28T05:08:20;99309.34;;;0.33;84.04
7760;BME280;3924;48.830;9.262;2023-01-28T05:10:47;99311.19;;;0.33;84.08
7760;BME280;3924;48.830;9.262;2023-01-28T05:13:13;99315.91;;;0.31;84.13
7760;BME280;3924;48.830;9.262;2023-01-28T05:15:40;99307.94;;;0.31;84.02
7760;BME280;3924;48.830;9.262;2023-01-28T05:18:06;99307.94;;;0.31;84.31
7760;BME280;3924;48.830;9.262;2023-01-28T05:20:33;99307.72;;;0.32;84.20
7760;BME280;3924;48.830;9.262;2023-01-28T05:22:59;99307.94;;;0.31;84.16
7760;BME280;3924;48.830;9.262;2023-01-28T05:25:25;99304.66;;;0.29;84.00
7760;BME280;3924;48.830;9.262;2023-01-28T05:27:53;99300.97;;;0.30;84.28
7760;BME280;3924;48.830;9.262;2023-01-28T05:30:20;99297.69;;;0.28;84.38
7760;BME280;3924;48.830;9.262;2023-01-28T05:32:46;99293.16;;;0.28;84.28
7760;BME280;3924;48.830;9.262;2023-01-28T05:35:13;99300.34;;;0.28;84.22
7760;BME280;3924;48.830;9.262;2023-01-28T05:37:40;99298.69;;;0.26;84.17
7760;BME280;3924;48.830;9.262;2023-01-28T05:40:09;99303.84;;;0.28;84.42
7760;BME280;3924;48.830;9.262;2023-01-28T05:42:35;99303.84;;;0.28;84.38
7760;BME280;3924;48.830;9.262;2023-01-28T05:45:02;99300.13;;;0.29;84.35
7760;BME280;3924;48.830;9.262;2023-01-28T05:47:29;99307.94;;;0.31;84.28
7760;BME280;3924;48.830;9.262;2023-01-28T05:49:55;99306.28;;;0.30;84.34
7760;BME280;3924;48.830;9.262;2023-01-28T05:52:21;99306.28;;;0.30;84.26
7760;BME280;3924;48.830;9.262;2023-01-28T05:54:48;99304.66;;;0.29;84.64
7760;BME280;3924;48.830;9.262;2023-01-28T05:57:14;99313.47;;;0.29;84.42
7760;BME280;3924;48.830;9.262;2023-01-28T05:59:41;99314.50;;;0.28;84.39
7760;BME280;3924;48.830;9.262;2023-01-28T06:02:07;99322.28;;;0.30;84.46
7760;BME280;3924;48.830;9.262;2023-01-28T06:04:34;99323.09;;;0.30;84.51
7760;BME280;3924;48.830;9.262;2023-01-28T06:07:00;99323.72;;;0.32;84.59
7760;BME280;3924;48.830;9.262;2023-01-28T06:09:26;99321.84;;;0.33;84.54
7760;BME280;3924;48.830;9.262;2023-01-28T06:11:53;99328.00;;;0.33;84.66
7760;BME280;3924;48.830;9.262;2023-01-28T06:14:19;99325.34;;;0.33;84.59
7760;BME280;3924;48.830;9.262;2023-01-28T06:16:46;99339.50;;;0.34;84.63
7760;BME280;3924;48.830;9.262;2023-01-28T06:19:12;99343.19;;;0.33;84.62
7760;BME280;3924;48.830;9.262;2023-01-28T06:21:39;99348.53;;;0.33;84.88
7760;BME280;3924;48.830;9.262;2023-01-28T06:24:05;99353.03;;;0.32;84.67
7760;BME280;3924;48.830;9.262;2023-01-28T06:26:32;99357.56;;;0.32;84.63
7760;BME280;3924;48.830;9.262;2023-01-28T06:28:58;99364.53;;;0.33;84.92
7760;BME280;3924;48.830;9.262;2023-01-28T06:31:25;99361.84;;;0.33;84.77
7760;BME280;3924;48.830;9.262;2023-01-28T06:33:51;99365.34;;;0.33;84.76
7760;BME280;3924;48.830;9.262;2023-01-28T06:36:18;99373.16;;;0.35;84.74
7760;BME280;3924;48.830;9.262;2023-01-28T06:38:44;99373.16;;;0.35;84.64
7760;BME280;3924;48.830;9.262;2023-01-28T06:41:11;99373.97;;;0.35;84.75
7760;BME280;3924;48.830;9.262;2023-01-28T06:43:38;99378.50;;;0.35;84.80
7760;BME280;3924;48.830;9.262;2023-01-28T06:46:04;99384.44;;;0.37;84.89
7760;BME280;3924;48.830;9.262;2023-01-28T06:48:31;99379.91;;;0.37;84.82
7760;BME280;3924;48.830;9.262;2023-01-28T06:50:57;99380.13;;;0.36;84.89
7760;BME280;3924;48.830;9.262;2023-01-28T06:53:24;99384.44;;;0.37;85.12
7760;BME280;3924;48.830;9.262;2023-01-28T06:55:50;99391.63;;;0.36;84.88
7760;BME280;3924;48.830;9.262;2023-01-28T06:58:17;99386.28;;;0.36;84.91
7760;BME280;3924;48.830;9.262;2023-01-28T07:00:43;99392.44;;;0.37;84.99
7760;BME280;3924;48.830;9.262;2023-01-28T07:03:10;99392.44;;;0.37;84.94
7760;BME280;3924;48.830;9.262;2023-01-28T07:05:36;99382.78;;;0.36;85.20
7760;BME280;3924;48.830;9.262;2023-01-28T07:08:03;99387.91;;;0.37;85.11
7760;BME280;3924;48.830;9.262;2023-01-28T07:10:29;99385.03;;;0.39;84.95
7760;BME280;3924;48.830;9.262;2023-01-28T07:12:56;99393.03;;;0.39;85.08
7760;BME280;3924;48.830;9.262;2023-01-28T07:15:22;99392.00;;;0.40;85.11
7760;BME280;3924;48.830;9.262;2023-01-28T07:17:49;99397.97;;;0.42;84.94
7760;BME280;3924;48.830;9.262;2023-01-28T07:20:17;99399.81;;;0.41;85.14
7760;BME280;3924;48.830;9.262;2023-01-28T07:22:44;99409.25;;;0.44;85.20
7760;BME280;3924;48.830;9.262;2023-01-28T07:25:12;99410.88;;;0.45;85.15
7760;BME280;3924;48.830;9.262;2023-01-28T07:27:39;99405.34;;;0.46;85.04
7760;BME280;3924;48.830;9.262;2023-01-28T07:30:05;99401.63;;;0.47;85.18
7760;BME280;3924;48.830;9.262;2023-01-28T07:32:32;99403.50;;;0.47;85.26
7760;BME280;3924;48.830;9.262;2023-01-28T07:34:59;99405.75;;;0.50;85.21
7760;BME280;3924;48.830;9.262;2023-01-28T07:37:25;99411.69;;;0.52;85.13
7760;BME280;3924;48.830;9.262;2023-01-28T07:39:52;99409.63;;;0.54;84.92
7760;BME280;3924;48.830;9.262;2023-01-28T07:42:18;99413.97;;;0.55;85.40
7760;BME280;3924;48.830;9.262;2023-01-28T07:44:45;99411.31;;;0.55;85.28
7760;BME280;3924;48.830;9.262;2023-01-28T07:47:11;99413.75;;;0.57;85.11
7760;BME280;3924;48.830;9.262;2023-01-28T07:49:38;99418.88;;;0.58;84.93
7760;BME280;3924;48.830;9.262;2023-01-28T07:52:07;99427.50;;;0.60;85.01
7760;BME280;3924;48.830;9.262;2023-01-28T07:54:34;99414.16;;;0.60;85.22
7760;BME280;3924;48.830;9.262;2023-01-28T07:57:00;99419.50;;;0.60;85.26
7760;BME280;3924;48.830;9.262;2023-01-28T07:59:27;99425.47;;;0.62;85.20
7760;BME280;3924;48.830;9.262;2023-01-28T08:01:53;99421.53;;;0.65;85.09
7760;BME280;3924;48.830;9.262;2023-01-28T08:04:20;99433.63;;;0.67;85.09
7760;BME280;3924;48.830;9.262;2023-01-28T08:06:47;99437.94;;;0.68;85.25
7760;BME280;3924;48.830;9.262;2023-01-28T08:09:14;99430.78;;;0.69;85.09
7760;BME280;3924;48.830;9.262;2023-01-28T08:11:40;99433.84;;;0.72;85.27
7760;BME280;3924;48.830;9.262;2023-01-28T08:14:09;99437.13;;;0.74;85.14
7760;BME280;3924;48.830;9.262;2023-01-28T08:16:35;99431.38;;;0.77;85.35
7760;BME280;3924;48.830;9.262;2023-01-28T08:19:02;99437.13;;;0.81;84.98
7760;BME280;3924;48.830;9.262;2023-01-28T08:21:28;99437.53;;;0.85;85.16
7760;BME280;3924;48.830;9.262;2023-01-28T08:23:55;99436.28;;;0.87;85.03
7760;BME280;3924;48.830;9.262;2023-01-28T08:26:22;99441.22;;;0.90;85.13
7760;BME280;3924;48.830;9.262;2023-01-28T08:28:49;99445.91;;;0.95;85.27
7760;BME280;3924;48.830;9.262;2023-01-28T08:31:17;99454.56;;;0.97;85.18
7760;BME280;3924;48.830;9.262;2023-01-28T08:33:43;99444.69;;;0.97;85.16
7760;BME280;3924;48.830;9.262;2023-01-28T08:36:10;99451.69;;;0.98;85.15
7760;BME280;3924;48.830;9.262;2023-01-28T08:38:36;99444.06;;;1.02;85.16
7760;BME280;3924;48.830;9.262;2023-01-28T08:41:03;99447.97;;;1.06;85.26
7760;BME280;3924;48.830;9.262;2023-01-28T08:43:29;99442.19;;;1.09;84.93
7760;BME280;3924;48.830;9.262;2023-01-28T08:45:56;99442.41;;;1.14;85.09
7760;BME280;3924;48.830;9.262;2023-01-28T08:48:22;99444.44;;;1.19;85.11
7760;BME280;3924;48.830;9.262;2023-01-28T08:50:49;99444.84;;;1.22;85.28
7760;BME280;3924;48.830;9.262;2023-01-28T08:53:18;99447.09;;;1.25;84.99
7760;BME280;3924;48.830;9.262;2023-01-28T08:55:45;99443.19;;;1.28;84.90
7760;BME280;3924;48.830;9.262;2023-01-28T08:58:14;99445.44;;;1.31;85.09
7760;BME280;3924;48.830;9.262;2023-01-28T09:00:43;99452.00;;;1.35;84.86
7760;BME280;3924;48.830;9.262;2023-01-28T09:03:09;99442.53;;;1.39;84.77
7760;BME280;3924;48.830;9.262;2023-01-28T09:05:37;99454.63;;;1.42;84.75
7760;BME280;3924;48.830;9.262;2023-01-28T09:08:09;99446.81;;;1.47;84.99
7760;BME280;3924;48.830;9.262;2023-01-28T09:10:36;99445.16;;;1.52;84.78
7760;BME280;3924;48.830;9.262;2023-01-28T09:13:05;99452.75;;;1.55;84.79
7760;BME280;3924;48.830;9.262;2023-01-28T09:15:32;99457.88;;;1.57;84.54
7760;BME280;3924;48.830;9.262;2023-01-28T09:17:58;99455.38;;;1.62;84.83
7760;BME280;3924;48.830;9.262;2023-01-28T09:20:26;99459.88;;;1.68;84.61
7760;BME280;3924;48.830;9.262;2023-01-28T09:22:53;99465.22;;;1.68;84.58
7760;BME280;3924;48.830;9.262;2023-01-28T09:25:19;99465.22;;;1.68;84.37
7760;BME280;3924;48.830;9.262;2023-01-28T09:27:46;99466.25;;;1.67;84.93
7760;BME280;3924;48.830;9.262;2023-01-28T09:30:12;99471.41;;;1.69;84.79
7760;BME280;3924;48.830;9.262;2023-01-28T09:32:40;99480.81;;;1.71;84.88
7760;BME280;3924;48.830;9.262;2023-01-28T09:35:06;99473.44;;;1.73;84.40
7760;BME280;3924;48.830;9.262;2023-01-28T09:37:33;99481.00;;;1.76;84.73
7760;BME280;3924;48.830;9.262;2023-01-28T09:40:00;99482.66;;;1.77;84.71
7760;BME280;3924;48.830;9.262;2023-01-28T09:42:58;99473.81;;;1.77;84.66
7760;BME280;3924;48.830;9.262;2023-01-28T09:45:40;99486.56;;;1.81;84.54
7760;BME280;3924;48.830;9.262;2023-01-28T09:48:18;99489.81;;;1.83;84.25
7760;BME280;3924;48.830;9.262;2023-01-28T09:50:50;99490.66;;;1.84;84.36
7760;BME280;3924;48.830;9.262;2023-01-28T09:53:24;99501.75;;;1.87;84.37
7760;BME280;3924;48.830;9.262;2023-01-28T09:56:00;99490.66;;;1.84;84.46
7760;BME280;3924;48.830;9.262;2023-01-28T09:58:27;99493.97;;;1.79;84.54
7760;BME280;3924;48.830;9.262;2023-01-28T10:04:01;99497.47;;;1.80;84.58
7760;BME280;3924;48.830;9.262;2023-01-28T10:09:30;99498.09;;;1.75;84.45
7760;BME280;3924;48.830;9.262;2023-01-28T10:15:00;99488.66;;;1.73;84.71
7760;BME280;3924;48.830;9.262;2023-01-28T10:17:34;99484.13;;;1.73;84.55
7760;BME280;3924;48.830;9.262;2023-01-28T10:20:07;99488.44;;;1.74;84.46
7760;BME280;3924;48.830;9.262;2023-01-28T10:22:47;99492.75;;;1.75;84.69
7760;BME280;3924;48.830;9.262;2023-01-28T10:25:20;99479.97;;;1.77;84.33
7760;BME280;3924;48.830;9.262;2023-01-28T10:27:48;99474.63;;;1.77;84.50
7760;BME280;3924;48.830;9.262;2023-01-28T10:30:21;99486.16;;;1.78;84.37
7760;BME280;3924;48.830;9.262;2023-01-28T10:33:04;99484.91;;;1.80;84.50
7760;BME280;3924;48.830;9.262;2023-01-28T10:35:36;99479.94;;;1.84;84.33
7760;BME280;3924;48.830;9.262;2023-01-28T10:38:06;99480.78;;;1.84;84.40
7760;BME280;3924;48.830;9.262;2023-01-28T10:40:34;99479.94;;;1.84;84.43
7760;BME280;3924;48.830;9.262;2023-01-28T10:43:01;99472.56;;;1.86;84.64
7760;BME280;3924;48.830;9.262;2023-01-28T10:45:37;99470.84;;;1.91;84.31
7760;BME280;3924;48.830;9.262;2023-01-28T10:48:08;99465.69;;;1.97;84.35
7760;BME280;3924;48.830;9.262;2023-01-28T10:50:52;99467.16;;;1.99;84.33
7760;BME280;3924;48.830;9.262;2023-01-28T10:53:19;99472.06;;;2.02;84.16
7760;BME280;3924;48.830;9.262;2023-01-28T10:55:50;99476.59;;;2.02;84.25
7760;BME280;3924;48.830;9.262;2023-01-28T10:58:21;99468.75;;;2.07;84.17
7760;BME280;3924;48.830;9.262;2023-01-28T11:00:54;99477.56;;;2.14;84.25
7760;BME280;3924;48.830;9.262;2023-01-28T11:03:22;99478.09;;;2.23;84.09
7760;BME280;3924;48.830;9.262;2023-01-28T11:05:54;99480.16;;;2.27;84.00
7760;BME280;3924;48.830;9.262;2023-01-28T11:08:22;99483.19;;;2.31;83.92
7760;BME280;3924;48.830;9.262;2023-01-28T11:10:53;99487.13;;;2.28;83.92
7760;BME280;3924;48.830;9.262;2023-01-28T11:13:28;99488.59;;;2.24;83.84
7760;BME280;3924;48.830;9.262;2023-01-28T11:16:01;99482.22;;;2.18;84.08
7760;BME280;3924;48.830;9.262;2023-01-28T11:18:34;99478.16;;;2.16;83.85
7760;BME280;3924;48.830;9.262;2023-01-28T11:21:06;99474.44;;;2.17;84.06
7760;BME280;3924;48.830;9.262;2023-01-28T11:26:18;99475.47;;;2.16;84.23
7760;BME280;3924;48.830;9.262;2023-01-28T11:28:46;99480.84;;;2.09;83.86
7760;BME280;3924;48.830;9.262;2023-01-28T11:31:15;99480.63;;;2.11;83.98
7760;BME280;3924;48.830;9.262;2023-01-28T11:33:47;99484.34;;;2.10;84.06
7760;BME280;3924;48.830;9.262;2023-01-28T11:36:18;99480.63;;;2.11;83.77
7760;BME280;3924;48.830;9.262;2023-01-28T11:39:29;99483.09;;;2.12;83.88
7760;BME280;3924;48.830;9.262;2023-01-28T11:41:37;99482.28;;;2.12;83.71
7760;BME280;3924;48.830;9.262;2023-01-28T11:44:23;99487.03;;;2.10;84.10
7760;BME280;3924;48.830;9.262;2023-01-28T11:55:15;99488.88;;;2.09;83.91
7760;BME280;3924;48.830;9.262;2023-01-28T11:57:52;99486.03;;;2.04;83.94
7760;BME280;3924;48.830;9.262;2023-01-28T12:00:51;99482.97;;;2.01;84.09
7760;BME280;3924;48.830;9.262;2023-01-28T12:17:43;99484.00;;;2.00;83.84
7760;BME280;3924;48.830;9.262;2023-01-28T12:20:37;99486.06;;;1.98;83.86
7760;BME280;3924;48.830;9.262;2023-01-28T12:26:10;99487.28;;;2.02;83.95
7760;BME280;3924;48.830;9.262;2023-01-28T12:28:50;99493.81;;;2.06;83.66
7760;BME280;3924;48.830;9.262;2023-01-28T12:31:38;99478.59;;;2.13;83.72
7760;BME280;3924;48.830;9.262;2023-01-28T12:39:44;99495.38;;;2.27;83.42
7760;BME280;3924;48.830;9.262;2023-01-28T12:42:26;99489.19;;;2.26;83.29
7760;BME280;3924;48.830;9.262;2023-01-28T12:45:02;99488.59;;;2.24;83.65
7760;BME280;3924;48.830;9.262;2023-01-28T12:47:38;99483.22;;;2.24;83.64
7760;BME280;3924;48.830;9.262;2023-01-28T12:50:17;99490.44;;;2.24;83.48
7760;BME280;3924;48.830;9.262;2023-01-28T12:52:56;99472.34;;;2.19;83.45
7760;BME280;3924;48.830;9.262;2023-01-28T12:55:41;99482.22;;;2.18;83.70
7760;BME280;3924;48.830;9.262;2023-01-28T12:58:16;99480.00;;;2.15;83.45
7760;BME280;3924;48.830;9.262;2023-01-28T13:00:49;99472.63;;;2.11;83.34
7760;BME280;3924;48.830;9.262;2023-01-28T13:03:27;99477.78;;;2.06;83.68
7760;BME280;3924;48.830;9.262;2023-01-28T13:06:00;99467.53;;;2.03;83.43
7760;BME280;3924;48.830;9.262;2023-01-28T13:08:28;99472.69;;;1.98;84.00
7760;BME280;3924;48.830;9.262;2023-01-28T13:10:57;99469.41;;;1.96;83.62
7760;BME280;3924;48.830;9.262;2023-01-28T13:16:00;99478.66;;;2.00;83.81
7760;BME280;3924;48.830;9.262;2023-01-28T13:21:31;99475.53;;;2.03;83.83
7760;BME280;3924;48.830;9.262;2023-01-28T13:26:47;99478.63;;;2.06;83.37
7760;BME280;3924;48.830;9.262;2023-01-28T13:31:42;99479.47;;;2.00;83.98
7760;BME280;3924;48.830;9.262;2023-01-28T13:34:40;99489.13;;;2.01;83.82
7760;BME280;3924;48.830;9.262;2023-01-28T13:39:55;99481.94;;;2.02;83.85
7760;BME280;3924;48.830;9.262;2023-01-28T13:44:50;99483.19;;;1.99;84.01
7760;BME280;3924;48.830;9.262;2023-01-28T13:47:30;99484.19;;;1.98;83.93
7760;BME280;3924;48.830;9.262;2023-01-28T13:50:19;99480.28;;;2.01;84.08
7760;BME280;3924;48.830;9.262;2023-01-28T13:52:55;99494.25;;;2.03;83.91
7760;BME280;3924;48.830;9.262;2023-01-28T13:55:35;99494.25;;;2.03;84.11
7760;BME280;3924;48.830;9.262;2023-01-28T13:58:30;99496.94;;;2.03;83.72
7760;BME280;3924;48.830;9.262;2023-01-28T14:01:27;99491.81;;;2.01;83.57
7760;BME280;3924;48.830;9.262;2023-01-28T14:13:05;99501.25;;;2.04;83.69
7760;BME280;3924;48.830;9.262;2023-01-28T14:16:08;99499.16;;;2.06;83.86
7760;BME280;3924;48.830;9.262;2023-01-28T14:18:43;99504.94;;;2.09;84.01
7760;BME280;3924;48.830;9.262;2023-01-28T14:21:13;99502.44;;;2.14;83.70
7760;BME280;3924;48.830;9.262;2023-01-28T14:23:47;99510.84;;;2.18;83.83
7760;BME280;3924;48.830;9.262;2023-01-28T14:26:30;99508.97;;;2.18;83.76
7760;BME280;3924;48.830;9.262;2023-01-28T14:29:14;99508.78;;;2.20;83.51
7760;BME280;3924;48.830;9.262;2023-01-28T14:31:42;99522.56;;;2.17;83.42
7760;BME280;3924;48.830;9.262;2023-01-28T14:34:28;99516.03;;;2.13;83.51
7760;BME280;3924;48.830;9.262;2023-01-28T14:37:15;99521.19;;;2.08;83.62
7760;BME280;3924;48.830;9.262;2023-01-28T14:39:46;99522.22;;;2.07;83.83
7760;BME280;3924;48.830;9.262;2023-01-28T14:42:25;99523.44;;;2.11;83.80
7760;BME280;3924;48.830;9.262;2023-01-28T14:48:00;99526.50;;;2.14;83.29
7760;BME280;3924;48.830;9.262;2023-01-28T14:57:01;99537.44;;;2.13;83.48
7760;BME280;3924;48.830;9.262;2023-01-28T14:59:41;99539.66;;;2.16;83.72
7760;BME280;3924;48.830;9.262;2023-01-28T15:02:17;99540.88;;;2.20;83.65
7760;BME280;3924;48.830;9.262;2023-01-28T15:07:21;99546.44;;;2.18;83.22
7760;BME280;3924;48.830;9.262;2023-01-28T15:09:59;99549.31;;;2.17;83.56
7760;BME280;3924;48.830;9.262;2023-01-28T15:12:25;99551.63;;;2.13;83.45
7760;BME280;3924;48.830;9.262;2023-01-28T15:14:52;99551.22;;;2.10;83.49
7760;BME280;3924;48.830;9.262;2023-01-28T15:17:25;99550.81;;;2.06;83.37
7760;BME280;3924;48.830;9.262;2023-01-28T15:19:54;99557.63;;;2.02;83.76
7760;BME280;3924;48.830;9.262;2023-01-28T15:22:26;99558.06;;;1.99;83.41
7760;BME280;3924;48.830;9.262;2023-01-28T15:24:54;99557.22;;;1.99;83.51
7760;BME280;3924;48.830;9.262;2023-01-28T15:27:28;99563.00;;;1.96;83.85
7760;BME280;3924;48.830;9.262;2023-01-28T15:29:57;99566.69;;;1.95;83.59
7760;BME280;3924;48.830;9.262;2023-01-28T15:32:27;99562.19;;;1.88;83.65
7760;BME280;3924;48.830;9.262;2023-01-28T15:34:54;99574.31;;;1.91;83.80